Time;durP1;ratioP1;P1;durP2;ratioP2;P2;SDS_P1;SDS_P2;PMS_P1;PMS_P2;Temp;Humidity;BMP_temperature;BMP_pressure;BME280_temperature;BME280_humidity;BME280_pressure;Samples;Min_cycle;Max_cycle;Signal;HPM_P1;HPM_P2
2022/06/05 00:01:46;;;;;;;6.17;5.55;;;;;;;16.54;70.10;101094.78;1728578;82;26247;-82
2022/06/05 00:04:33;;;;;;;6.62;5.40;;;;;;;16.50;70.36;101097.61;1726967;82;26066;-81
2022/06/05 00:07:37;;;;;;;6.60;4.83;;;;;;;16.43;70.70;101098.95;1709429;83;27459;-81
2022/06/05 00:10:23;;;;;;;6.03;5.40;;;;;;;16.37;70.71;101093.05;1717652;83;25954;-80
2022/06/05 00:13:04;;;;;;;8.65;5.53;;;;;;;16.30;71.32;101098.98;1724022;81;25339;-82
2022/06/05 00:15:30;;;;;;;7.80;6.45;;;;;;;16.23;71.43;101088.18;1740407;81;26523;-82
2022/06/05 00:17:56;;;;;;;8.10;5.50;;;;;;;16.18;71.05;101094.77;1733747;81;26167;-82
2022/06/05 00:20:23;;;;;;;13.38;6.87;;;;;;;16.14;71.16;101085.93;1731631;81;27453;-82
2022/06/05 00:22:49;;;;;;;7.42;5.20;;;;;;;16.13;71.68;101092.36;1722288;81;27097;-82
2022/06/05 00:25:18;;;;;;;9.98;6.20;;;;;;;16.09;71.64;101083.02;1714557;81;25797;-82
2022/06/05 00:27:59;;;;;;;8.93;5.92;;;;;;;16.08;71.33;101092.19;1715144;82;25890;-82
2022/06/05 00:30:32;;;;;;;;;;;;;;;16.02;71.70;101091.65;1735424;81;25323;-82
2022/06/05 00:33:12;;;;;;;8.35;5.25;;;;;;;15.98;71.66;101091.77;1732553;81;27486;-82
2022/06/05 00:36:02;;;;;;;8.78;6.92;;;;;;;15.91;71.77;101087.72;1726883;82;26332;-82
2022/06/05 00:38:37;;;;;;;10.38;6.40;;;;;;;15.88;71.94;101092.72;1727501;82;25693;-82
2022/06/05 00:41:39;;;;;;;7.28;5.97;;;;;;;15.83;71.99;101101.44;1728966;82;25675;-82
2022/06/05 00:44:09;;;;;;;8.28;6.35;;;;;;;15.76;72.28;101093.86;1724645;81;25788;-82
2022/06/05 00:46:38;;;;;;;8.43;6.05;;;;;;;15.74;72.30;101093.78;1729298;81;27477;-82
2022/06/05 00:49:06;;;;;;;7.87;5.67;;;;;;;15.71;72.36;101091.48;1724569;81;25879;-82
2022/06/05 00:51:33;;;;;;;9.35;5.60;;;;;;;15.66;72.52;101084.51;1713362;81;25794;-82
2022/06/05 00:54:00;;;;;;;7.22;6.03;;;;;;;15.64;72.67;101083.38;1723193;82;26308;-82
2022/06/05 00:56:26;;;;;;;8.60;5.85;;;;;;;15.60;72.90;101078.59;1734263;82;25749;-82
2022/06/05 00:58:53;;;;;;;8.18;6.60;;;;;;;15.59;72.67;101077.75;1735498;82;27485;-82
2022/06/05 01:01:21;;;;;;;7.97;6.58;;;;;;;15.57;72.58;101076.33;1723415;82;25948;-82
2022/06/05 01:03:48;;;;;;;7.55;6.12;;;;;;;15.56;72.82;101074.14;1727368;81;25743;-82
2022/06/05 01:06:14;;;;;;;6.58;5.87;;;;;;;15.54;72.54;101075.38;1730187;82;26181;-83
2022/06/05 01:08:41;;;;;;;8.68;6.75;;;;;;;15.53;72.79;101073.19;1711355;83;25884;-82
2022/06/05 01:11:32;;;;;;;9.10;7.25;;;;;;;15.51;72.74;101082.02;1728931;82;28055;-82
2022/06/05 01:14:22;;;;;;;7.87;6.17;;;;;;;15.54;72.91;101080.78;1731735;81;26007;-82
2022/06/05 01:17:20;;;;;;;7.67;6.47;;;;;;;15.55;72.97;101085.13;1735138;82;25929;-82
2022/06/05 01:19:59;;;;;;;6.85;6.25;;;;;;;15.51;72.86;101083.88;1731077;82;25867;-82
2022/06/05 01:22:57;;;;;;;11.68;7.35;;;;;;;15.53;72.96;101089.39;1735053;82;25486;-81
2022/06/05 01:26:03;;;;;;;9.18;6.33;;;;;;;15.55;72.94;101087.31;1738572;82;27531;-82
2022/06/05 01:28:34;;;;;;;11.75;6.87;;;;;;;15.52;72.85;101095.84;1739695;82;26647;-83
2022/06/05 01:31:19;;;;;;;;;;;;;;;15.51;73.03;101093.33;1730312;82;25721;-82
2022/06/05 01:33:51;;;;;;;9.18;7.28;;;;;;;15.51;73.31;101096.87;1681892;84;25802;-82
2022/06/05 01:36:26;;;;;;;9.95;7.47;;;;;;;15.46;73.43;101103.42;1700057;84;25301;-82
2022/06/05 01:39:04;;;;;;;9.50;7.28;;;;;;;15.40;73.31;101109.08;1688016;84;27547;-82
2022/06/05 01:41:39;;;;;;;10.60;7.22;;;;;;;15.35;73.45;101103.45;1702019;84;25749;-83
2022/06/05 01:44:10;;;;;;;8.18;7.25;;;;;;;15.32;73.75;101107.09;1681336;83;25929;-82
2022/06/05 01:46:39;;;;;;;9.40;7.70;;;;;;;15.28;73.58;101112.59;1679260;84;26624;-83
2022/06/05 01:49:25;;;;;;;11.83;7.28;;;;;;;15.28;73.62;101112.59;1702280;82;25574;-82
2022/06/05 01:52:03;;;;;;;10.65;7.47;;;;;;;15.26;73.81;101113.31;1701979;83;28366;-82
2022/06/05 01:55:04;;;;;;;10.28;7.05;;;;;;;15.23;73.84;101123.16;1698306;84;25812;-82
2022/06/05 01:57:33;;;;;;;9.33;7.62;;;;;;;15.23;73.81;101125.34;1683156;84;26538;-82
2022/06/05 02:00:13;;;;;;;8.55;6.55;;;;;;;15.23;73.78;101129.91;1692855;83;25609;-82
2022/06/05 02:02:57;;;;;;;8.98;7.15;;;;;;;15.20;73.62;101139.27;1724486;82;25740;-82
2022/06/05 02:05:29;;;;;;;10.60;7.08;;;;;;;15.16;73.49;101142.03;1740692;82;27471;-83
2022/06/05 02:08:01;;;;;;;8.75;6.83;;;;;;;15.16;73.32;101138.52;1734051;82;26509;-83
2022/06/05 02:10:53;;;;;;;8.08;6.83;;;;;;;15.17;73.51;101140.17;1723933;82;25835;-82
2022/06/05 02:13:20;;;;;;;7.55;6.65;;;;;;;15.10;73.31;101135.27;1736574;81;25613;-82
2022/06/05 02:15:47;;;;;;;12.60;7.20;;;;;;;15.02;73.34;101143.55;1722772;82;25818;-83
2022/06/05 02:18:13;;;;;;;8.85;6.65;;;;;;;15.02;73.39;101139.50;1730134;82;27441;-83
2022/06/05 02:20:42;;;;;;;8.73;7.17;;;;;;;15.07;73.36;101132.48;1729637;82;25828;-83
2022/06/05 02:23:16;;;;;;;8.63;7.20;;;;;;;15.10;73.33;101134.75;1736967;81;25914;-83
2022/06/05 02:25:42;;;;;;;9.20;6.90;;;;;;;15.10;73.12;101140.15;1736319;82;25781;-83
2022/06/05 02:28:15;;;;;;;8.65;6.85;;;;;;;15.01;73.24;101145.95;1722352;83;25882;-82
2022/06/05 02:31:22;;;;;;;10.20;7.12;;;;;;;14.98;73.22;101147.69;1730718;81;27462;-82
2022/06/05 02:34:12;;;;;;;9.80;7.05;;;;;;;14.90;73.24;101152.76;1716042;82;25824;-82
2022/06/05 02:37:03;;;;;;;9.58;6.55;;;;;;;14.82;73.21;101148.05;1727772;82;25821;-82
2022/06/05 02:39:32;;;;;;;;;;;;;;;14.77;73.34;101147.30;1721377;83;25562;-82
2022/06/05 02:42:28;;;;;;;8.58;6.55;;;;;;;14.69;73.46;101152.33;1695515;83;26060;-82
2022/06/05 02:45:16;;;;;;;9.23;6.62;;;;;;;14.57;73.48;101151.23;1714823;83;27416;-83
2022/06/05 02:48:06;;;;;;;9.53;6.70;;;;;;;14.45;73.58;101149.30;1688486;83;25296;-82
2022/06/05 02:50:47;;;;;;;9.35;6.72;;;;;;;14.40;73.58;101150.41;1722336;83;25735;-83
2022/06/05 02:53:14;;;;;;;7.70;6.83;;;;;;;14.36;73.82;101162.11;1722211;81;26510;-82
2022/06/05 02:55:40;;;;;;;8.98;6.80;;;;;;;14.31;73.77;101162.36;1713562;83;25303;-82
2022/06/05 02:58:08;;;;;;;10.18;7.20;;;;;;;14.27;73.88;101165.11;1724334;83;27444;-83
2022/06/05 03:00:38;;;;;;;8.30;7.15;;;;;;;14.25;73.96;101165.81;1700084;83;25866;-83
2022/06/05 03:05:51;;;;;;;8.55;6.97;;;;;;;14.15;73.63;101161.30;1705726;83;26046;-82
2022/06/05 03:08:20;;;;;;;8.20;7.00;;;;;;;14.13;73.74;101165.55;1728283;81;26145;-83
2022/06/05 03:10:46;;;;;;;8.58;7.03;;;;;;;14.11;73.86;101178.38;1721117;82;28225;-82
2022/06/05 03:13:14;;;;;;;11.43;6.33;;;;;;;14.10;73.93;101180.74;1728490;81;26294;-83
2022/06/05 03:15:43;;;;;;;8.18;6.85;;;;;;;14.11;74.03;101175.69;1723740;82;25375;-83
2022/06/05 03:18:15;;;;;;;7.28;6.25;;;;;;;14.10;73.66;101180.74;1718481;82;25976;-83
2022/06/05 03:20:42;;;;;;;8.63;6.60;;;;;;;14.07;73.51;101183.00;1728817;81;25825;-83
2022/06/05 03:23:10;;;;;;;9.43;6.80;;;;;;;14.04;73.43;101188.77;1721746;82;27458;-82
2022/06/05 03:25:39;;;;;;;11.35;6.70;;;;;;;14.05;73.52;101189.91;1722528;83;25288;-82
2022/06/05 03:28:08;;;;;;;7.15;6.15;;;;;;;14.06;73.39;101190.75;1705975;83;26541;-82
2022/06/05 03:30:40;;;;;;;7.87;6.37;;;;;;;14.05;73.34;101197.19;1687128;83;26800;-82
2022/06/05 03:33:08;;;;;;;6.60;6.00;;;;;;;14.06;72.96;101197.48;1696961;83;26429;-83
2022/06/05 03:35:40;;;;;;;8.68;6.12;;;;;;;14.07;72.80;101198.63;1700398;84;27468;-83
2022/06/05 03:38:07;;;;;;;6.85;5.97;;;;;;;14.08;72.80;101207.05;1699742;83;25873;-83
2022/06/05 03:40:34;;;;;;;9.28;6.53;;;;;;;14.09;72.67;101207.38;1702386;84;25962;-83
2022/06/05 03:43:01;;;;;;;10.32;6.30;;;;;;;14.09;72.56;101210.08;1696803;83;25906;-82
2022/06/05 03:45:27;;;;;;;8.73;6.05;;;;;;;14.12;72.51;101218.25;1694675;84;25805;-82
2022/06/05 03:47:56;;;;;;;7.87;6.35;;;;;;;14.10;72.14;101212.23;1693640;84;28259;-82
2022/06/05 03:50:22;;;;;;;7.72;6.47;;;;;;;14.12;72.37;101215.05;1693740;84;25757;-83
2022/06/05 03:52:48;;;;;;;8.68;7.30;;;;;;;14.16;72.44;101219.53;1693349;84;25293;-83
2022/06/05 03:55:19;;;;;;;7.58;6.35;;;;;;;14.14;72.21;101225.62;1729581;82;25906;-83
2022/06/05 03:57:45;;;;;;;7.70;6.40;;;;;;;14.11;72.20;101218.80;1728447;81;27007;-82
2022/06/05 04:00:15;;;;;;;7.28;6.10;;;;;;;14.10;72.04;101220.31;1728878;81;28280;-82
2022/06/05 04:02:43;;;;;;;6.65;6.00;;;;;;;14.11;72.14;101219.30;1724814;81;25875;-82
2022/06/05 04:05:15;;;;;;;7.33;6.30;;;;;;;14.13;72.01;101219.94;1720334;83;25857;-82
2022/06/05 04:07:42;;;;;;;6.92;6.20;;;;;;;14.16;72.13;101209.59;1714680;83;25607;-82
2022/06/05 04:10:13;;;;;;;7.28;5.85;;;;;;;14.19;72.10;101213.77;1689843;83;25305;-82
2022/06/05 04:12:40;;;;;;;8.45;6.22;;;;;;;14.21;72.08;101216.59;1715968;83;27617;-82
2022/06/05 04:15:08;;;;;;;9.23;6.40;;;;;;;14.23;71.99;101219.08;1727529;81;25319;-82
2022/06/05 04:17:35;;;;;;;7.20;6.45;;;;;;;14.26;71.83;101220.05;1719807;81;25544;-82
2022/06/05 04:20:04;;;;;;;10.63;6.42;;;;;;;14.26;71.44;101211.96;1730333;82;25460;-82
2022/06/05 04:22:34;;;;;;;8.93;6.55;;;;;;;14.22;71.43;101214.19;1725902;82;25337;-82
2022/06/05 04:25:01;;;;;;;11.65;8.03;;;;;;;14.22;71.16;101222.28;1723117;82;28340;-82
2022/06/05 04:27:27;;;;;;;9.00;7.15;;;;;;;14.20;71.18;101220.30;1724096;82;26439;-82
2022/06/05 04:29:54;;;;;;;11.28;6.50;;;;;;;14.22;71.32;101218.23;1725407;82;25953;-82
2022/06/05 04:32:20;;;;;;;9.15;6.50;;;;;;;14.22;71.20;101225.51;1690380;83;25473;-82
2022/06/05 04:34:50;;;;;;;6.95;6.25;;;;;;;14.19;71.27;101223.19;1724065;82;25936;-82
2022/06/05 04:37:16;;;;;;;7.30;6.47;;;;;;;14.17;71.27;101220.70;1695468;83;27472;-82
2022/06/05 04:39:42;;;;;;;7.80;6.53;;;;;;;14.18;71.41;101218.31;1717095;82;26390;-82
2022/06/05 04:42:09;;;;;;;8.55;5.83;;;;;;;14.21;71.68;101226.02;1696542;83;25468;-82
2022/06/05 04:44:36;;;;;;;8.65;6.45;;;;;;;14.25;71.40;101223.75;1721450;82;25837;-82
2022/06/05 04:47:02;;;;;;;7.35;5.78;;;;;;;14.29;71.10;101229.94;1722814;81;25821;-82
2022/06/05 04:49:29;;;;;;;8.50;6.30;;;;;;;14.30;70.98;101228.92;1722123;82;27457;-82
2022/06/05 04:51:55;;;;;;;6.35;5.42;;;;;;;14.35;70.47;101229.69;1729546;81;26024;-83
2022/06/05 04:54:21;;;;;;;10.48;6.28;;;;;;;14.31;70.31;101233.27;1733467;82;25721;-82
2022/06/05 04:56:48;;;;;;;7.45;6.37;;;;;;;14.32;70.40;101236.81;1717649;82;25900;-82
2022/06/05 04:59:14;;;;;;;8.13;6.15;;;;;;;14.36;70.74;101231.34;1724696;82;25771;-82
2022/06/05 05:01:41;;;;;;;7.62;5.60;;;;;;;14.42;70.65;101225.16;1728235;81;28406;-81
2022/06/05 05:04:12;;;;;;;6.67;5.75;;;;;;;14.49;70.46;101224.20;1719039;81;25794;-82
2022/06/05 05:06:39;;;;;;;;;;;;;;;14.53;70.35;101226.81;1731325;82;25684;-82
2022/06/05 05:09:06;;;;;;;6.55;5.55;;;;;;;14.57;70.55;101228.59;1720354;82;25903;-82
2022/06/05 05:11:34;;;;;;;6.67;5.35;;;;;;;14.57;70.37;101230.77;1722629;82;26122;-83
2022/06/05 05:14:01;;;;;;;6.33;5.67;;;;;;;14.63;70.53;101235.38;1722043;83;27455;-83
2022/06/05 05:16:30;;;;;;;7.87;5.58;;;;;;;14.69;70.12;101230.53;1722615;83;25473;-82
2022/06/05 05:18:57;;;;;;;7.55;5.87;;;;;;;14.77;70.47;101235.45;1722654;83;25862;-82
2022/06/05 05:21:26;;;;;;;8.70;6.30;;;;;;;14.85;70.58;101236.64;1725795;81;25721;-82
2022/06/05 05:23:54;;;;;;;7.62;6.15;;;;;;;14.91;70.04;101239.88;1700133;82;27276;-82
2022/06/05 05:26:25;;;;;;;10.68;6.17;;;;;;;15.00;70.52;101246.78;1737688;82;27442;-82
2022/06/05 05:28:53;;;;;;;6.08;5.47;;;;;;;15.04;69.91;101246.19;1732405;82;26450;-82
2022/06/05 05:31:24;;;;;;;7.50;5.97;;;;;;;15.12;69.81;101244.67;1726839;81;25787;-82
2022/06/05 05:33:52;;;;;;;8.40;5.72;;;;;;;15.17;69.94;101248.95;1715914;82;25600;-82
2022/06/05 05:36:21;;;;;;;8.10;5.83;;;;;;;15.24;70.30;101251.17;1725936;81;25726;-82
2022/06/05 05:44:21;;;;;;;8.70;5.78;;;;;;;15.51;69.69;101251.28;1739249;81;25762;-83
2022/06/05 05:46:48;;;;;;;10.48;6.20;;;;;;;15.64;70.21;101248.62;1729905;82;25275;-83
2022/06/05 05:49:15;;;;;;;6.70;5.67;;;;;;;15.73;69.84;101258.21;1732689;81;26029;-83
2022/06/05 05:51:42;;;;;;;10.23;6.50;;;;;;;15.76;69.40;101249.17;1736704;81;27608;-83
2022/06/05 05:54:10;;;;;;;9.08;5.97;;;;;;;15.83;68.95;101254.08;1731509;81;25708;-82
2022/06/05 05:56:39;;;;;;;8.45;5.97;;;;;;;15.88;69.06;101254.81;1728180;81;25804;-83
2022/06/05 05:59:06;;;;;;;7.97;5.37;;;;;;;15.98;69.24;101250.67;1720794;81;25479;-82
2022/06/05 06:01:32;;;;;;;7.12;5.58;;;;;;;16.10;68.97;101245.50;1730752;81;25931;-83
2022/06/05 06:03:59;;;;;;;7.08;5.85;;;;;;;16.20;68.88;101244.56;1733298;82;27437;-83
2022/06/05 06:06:29;;;;;;;11.38;6.35;;;;;;;16.27;68.78;101241.86;1716037;82;25549;-83
2022/06/05 06:08:56;;;;;;;9.65;5.65;;;;;;;16.37;68.68;101245.81;1722678;83;25760;-82
2022/06/05 06:11:23;;;;;;;6.05;5.33;;;;;;;16.50;68.48;101243.13;1672127;83;26524;-82
2022/06/05 06:13:49;;;;;;;8.45;6.28;;;;;;;16.63;68.93;101250.39;1721727;81;25884;-82
2022/06/05 06:16:16;;;;;;;7.87;6.25;;;;;;;16.74;68.53;101251.11;1699055;83;27667;-82
2022/06/05 06:18:42;;;;;;;8.25;5.97;;;;;;;16.80;67.68;101250.26;1697246;83;25514;-82
2022/06/05 06:21:09;;;;;;;5.97;5.28;;;;;;;16.86;67.82;101257.52;1691297;84;25412;-82
2022/06/05 06:23:35;;;;;;;6.55;5.95;;;;;;;16.86;66.93;101254.81;1737803;82;25954;-79
2022/06/05 06:26:07;;;;;;;7.35;5.47;;;;;;;16.87;67.37;101253.79;1721662;82;25759;-79
2022/06/05 06:28:33;;;;;;;7.67;5.83;;;;;;;16.93;67.40;101252.42;1729047;82;27471;-79
2022/06/05 06:31:07;;;;;;;8.68;6.50;;;;;;;17.02;67.01;101246.77;1738638;82;25734;-85
2022/06/05 06:33:33;;;;;;;6.42;5.67;;;;;;;17.08;66.24;101245.40;1719643;82;25752;-85
2022/06/05 06:36:04;;;;;;;7.35;5.67;;;;;;;17.16;66.73;101245.67;1734873;82;25833;-83
2022/06/05 06:38:32;;;;;;;7.70;5.80;;;;;;;17.27;66.62;101240.95;1711071;80;25307;-80
2022/06/05 06:41:09;;;;;;;6.37;5.78;;;;;;;17.41;66.60;101240.66;1730293;82;27618;-78
2022/06/05 06:43:35;;;;;;;7.55;5.87;;;;;;;17.48;65.64;101239.28;1739266;82;25330;-80
2022/06/05 06:46:03;;;;;;;10.05;5.78;;;;;;;17.54;65.92;101243.86;1712293;82;25826;-81
2022/06/05 06:48:29;;;;;;;7.80;5.40;;;;;;;17.60;66.36;101238.41;1731864;82;26572;-83
2022/06/05 06:50:58;;;;;;;6.72;4.83;;;;;;;17.73;65.95;101236.14;1738287;82;25808;-83
2022/06/05 06:53:26;;;;;;;8.30;5.33;;;;;;;17.77;64.73;101237.36;1730208;82;27402;-83
2022/06/05 06:55:53;;;;;;;5.87;5.33;;;;;;;17.80;64.52;101238.30;1721536;83;25895;-84
2022/06/05 06:58:19;;;;;;;5.12;4.58;;;;;;;17.77;64.64;101241.42;1720900;83;25817;-86
2022/06/05 07:00:45;;;;;;;7.22;5.42;;;;;;;17.82;64.58;101238.91;1733819;81;25860;-82
2022/06/05 07:03:12;;;;;;;5.28;4.78;;;;;;;17.89;64.21;101237.51;1714793;83;25881;-83
2022/06/05 07:05:40;;;;;;;7.08;5.22;;;;;;;17.91;63.50;101237.59;1722423;82;27124;-82
2022/06/05 07:08:09;;;;;;;7.15;6.28;;;;;;;17.98;63.94;101237.55;1704626;83;25779;-82
2022/06/05 07:10:38;;;;;;;5.90;5.10;;;;;;;18.06;63.99;101234.56;1709290;83;25803;-81
2022/06/05 07:13:05;;;;;;;7.67;4.87;;;;;;;18.17;63.94;101231.98;1696736;83;25912;-82
2022/06/05 07:15:35;;;;;;;5.40;4.70;;;;;;;18.20;63.22;101233.40;1708903;82;25362;-82
2022/06/05 07:18:05;;;;;;;7.75;5.30;;;;;;;18.21;62.79;101229.66;1718351;82;27461;-82
2022/06/05 07:20:34;;;;;;;5.90;5.30;;;;;;;18.27;63.35;101224.17;1725235;81;25787;-82
2022/06/05 07:23:02;;;;;;;7.10;4.42;;;;;;;18.29;62.20;101224.78;1732813;81;25789;-82
2022/06/05 07:25:30;;;;;;;8.15;4.65;;;;;;;18.23;61.83;101227.03;1736976;82;25923;-82
2022/06/05 07:27:56;;;;;;;5.67;4.70;;;;;;;18.23;62.50;101221.61;1721532;81;25755;-81
2022/06/05 07:30:24;;;;;;;6.60;5.20;;;;;;;18.31;62.74;101224.03;1733244;82;26930;-82
2022/06/05 07:32:50;;;;;;;6.25;4.65;;;;;;;18.40;61.83;101219.16;1718998;81;25913;-82
2022/06/05 07:35:17;;;;;;;6.72;5.17;;;;;;;18.47;61.49;101219.97;1698882;83;25848;-82
2022/06/05 07:37:44;;;;;;;5.85;5.03;;;;;;;18.51;61.23;101218.98;1685828;83;25812;-83
2022/06/05 07:40:13;;;;;;;6.37;5.15;;;;;;;18.55;61.73;101223.73;1690812;83;25790;-82
2022/06/05 07:42:42;;;;;;;5.05;4.35;;;;;;;18.63;61.60;101222.09;1719190;81;27427;-83
2022/06/05 07:45:14;;;;;;;7.00;4.72;;;;;;;18.68;61.34;101227.69;1727225;82;25414;-82
2022/06/05 07:47:42;;;;;;;7.20;4.17;;;;;;;18.72;60.70;101215.84;1726950;81;25309;-83
2022/06/05 07:50:09;;;;;;;7.15;4.25;;;;;;;18.78;60.35;101224.44;1686894;83;25751;-83
2022/06/05 07:55:21;;;;;;;7.65;4.70;;;;;;;18.88;60.15;101226.13;1729383;81;27082;-83
2022/06/05 07:57:48;;;;;;;5.70;4.50;;;;;;;18.96;60.90;101223.94;1729662;81;25331;-82
2022/06/05 08:00:15;;;;;;;10.18;4.58;;;;;;;19.05;59.88;101222.55;1721096;81;25974;-83
2022/06/05 08:02:41;;;;;;;6.33;4.47;;;;;;;19.08;59.64;101221.27;1731680;81;25861;-81
2022/06/05 08:05:09;;;;;;;4.92;4.35;;;;;;;19.10;58.42;101213.73;1716516;82;25930;-83
2022/06/05 08:07:36;;;;;;;5.10;4.65;;;;;;;19.11;59.80;101215.41;1738521;81;27669;-83
2022/06/05 08:10:05;;;;;;;5.22;4.12;;;;;;;19.14;58.61;101214.92;1729498;82;25973;-83
2022/06/05 08:12:34;;;;;;;6.08;4.78;;;;;;;19.17;58.07;101211.77;1714557;82;25471;-83
2022/06/05 08:15:08;;;;;;;9.30;4.15;;;;;;;19.20;58.83;101207.25;1712998;82;26605;-83
2022/06/05 08:17:36;;;;;;;5.20;4.70;;;;;;;19.26;58.83;101211.77;1703873;82;25764;-83
2022/06/05 08:20:05;;;;;;;7.10;4.60;;;;;;;19.30;59.68;101215.68;1722623;81;27465;-83
2022/06/05 08:22:31;;;;;;;4.60;4.20;;;;;;;19.36;59.29;101208.00;1734577;81;25291;-83
2022/06/05 08:24:58;;;;;;;6.15;4.50;;;;;;;19.43;58.29;101211.98;1722916;81;25560;-82
2022/06/05 08:27:27;;;;;;;5.80;4.20;;;;;;;19.46;58.21;101212.90;1739680;81;26731;-83
2022/06/05 08:29:55;;;;;;;6.08;3.92;;;;;;;19.55;58.37;101208.25;1728144;81;25308;-83
2022/06/05 08:32:23;;;;;;;5.15;4.20;;;;;;;19.64;58.64;101207.40;1716692;81;28246;-82
2022/06/05 08:34:50;;;;;;;4.47;4.08;;;;;;;19.69;57.52;101200.23;1724159;82;25916;-82
2022/06/05 08:43:30;;;;;;;6.42;3.72;;;;;;;19.96;56.44;101203.35;1732692;82;26441;-84
2022/06/05 08:46:17;;;;;;;3.35;3.05;;;;;;;20.02;57.20;101193.45;1719943;82;27467;-82
2022/06/05 08:48:54;;;;;;;4.28;3.22;;;;;;;19.97;54.44;101203.11;1714553;81;25803;-83
2022/06/05 08:51:44;;;;;;;5.20;2.77;;;;;;;19.93;54.24;101195.68;1729275;81;25302;-83
2022/06/05 08:54:21;;;;;;;3.42;2.70;;;;;;;19.97;54.87;101202.30;1695144;82;26226;-82
2022/06/05 08:57:02;;;;;;;4.40;3.20;;;;;;;20.09;55.22;101202.30;1730315;81;25283;-82
2022/06/05 08:59:32;;;;;;;4.60;2.65;;;;;;;20.13;54.12;101203.48;1728336;81;27443;-82
2022/06/05 09:02:16;;;;;;;2.52;2.30;;;;;;;20.20;54.04;101209.66;1720483;81;25761;-83
2022/06/05 09:04:57;;;;;;;2.62;2.40;;;;;;;20.26;51.48;101208.74;1726339;81;25990;-83
2022/06/05 09:07:34;;;;;;;3.08;2.50;;;;;;;20.24;50.94;101203.55;1721717;81;25649;-82
2022/06/05 09:10:27;;;;;;;3.58;2.67;;;;;;;20.30;52.45;101204.48;1718896;82;25327;-83
2022/06/05 09:13:28;;;;;;;2.83;2.42;;;;;;;20.38;50.61;101206.87;1733286;81;27479;-82
2022/06/05 09:15:59;;;;;;;3.40;2.52;;;;;;;20.42;50.48;101211.58;1727874;81;26087;-82
2022/06/05 09:18:35;;;;;;;2.52;2.30;;;;;;;20.41;49.33;101203.66;1717781;82;26050;-82
2022/06/05 09:21:25;;;;;;;3.17;2.52;;;;;;;20.42;50.35;101205.34;1713992;82;25844;-82
2022/06/05 09:24:08;;;;;;;2.87;2.30;;;;;;;20.50;51.03;101204.98;1732015;81;25826;-82
2022/06/05 09:26:45;;;;;;;4.08;2.55;;;;;;;20.57;51.29;101201.61;1728729;81;28870;-82
2022/06/05 09:29:28;;;;;;;5.30;3.00;;;;;;;20.66;51.11;101197.44;1723022;82;25845;-82
2022/06/05 09:32:12;;;;;;;3.37;2.77;;;;;;;20.79;51.67;101199.91;1715804;81;25320;-82
2022/06/05 09:35:08;;;;;;;2.75;2.42;;;;;;;20.82;50.87;101201.33;1722082;81;25482;-83
2022/06/05 09:37:58;;;;;;;3.22;2.40;;;;;;;20.83;50.40;101198.92;1717127;80;25903;-82
2022/06/05 09:40:38;;;;;;;2.22;2.02;;;;;;;20.81;48.68;101198.33;1720873;82;27509;-82
2022/06/05 09:43:44;;;;;;;3.72;2.33;;;;;;;20.81;49.26;101196.97;1724557;82;25944;-81
2022/06/05 09:46:35;;;;;;;3.30;2.80;;;;;;;20.87;49.19;101202.81;1721277;82;25706;-82
2022/06/05 09:49:05;;;;;;;;;;;;;;;20.93;49.82;101199.97;1715215;81;26531;-83
2022/06/05 09:51:36;;;;;;;4.83;2.50;;;;;;;20.96;48.81;101198.63;1723017;81;26614;-82
2022/06/05 09:54:14;;;;;;;;;;;;;;;21.00;49.07;101198.47;1735071;81;28389;-82
2022/06/05 10:03:42;;;;;;;4.70;2.02;;;;;;;21.10;48.08;101192.73;1761182;79;26521;-81
2022/06/05 10:06:23;;;;;;;2.62;1.60;;;;;;;21.13;48.42;101194.95;1763344;80;25349;-82
2022/06/05 10:08:55;;;;;;;1.70;1.60;;;;;;;21.18;46.99;101197.80;1757823;80;27449;-81
2022/06/05 10:11:53;;;;;;;1.92;1.82;;;;;;;21.23;46.31;101199.80;1724677;80;25871;-82
2022/06/05 10:14:44;;;;;;;2.95;1.90;;;;;;;21.25;44.95;101194.93;1745697;80;25963;-81
2022/06/05 10:17:28;;;;;;;1.95;1.85;;;;;;;21.26;45.92;101196.04;1721336;83;26573;-81
2022/06/05 10:20:21;;;;;;;3.98;2.10;;;;;;;21.31;46.42;101198.88;1722561;82;25921;-82
2022/06/05 10:22:59;;;;;;;2.75;1.75;;;;;;;21.44;46.42;101190.94;1701638;82;27450;-81
2022/06/05 10:25:49;;;;;;;3.45;1.72;;;;;;;21.41;45.45;101186.80;1722648;81;25951;-81
2022/06/05 10:28:20;;;;;;;2.22;1.57;;;;;;;21.40;44.13;101188.41;1728928;81;26141;-81
2022/06/05 10:31:03;;;;;;;1.80;1.60;;;;;;;21.40;44.37;101185.69;1741153;82;25967;-82
2022/06/05 10:34:13;;;;;;;3.30;2.08;;;;;;;21.51;44.46;101191.63;1718216;82;25977;-81
2022/06/05 10:37:03;;;;;;;4.33;1.97;;;;;;;21.58;44.48;101190.13;1727874;81;27463;-80
2022/06/05 10:39:53;;;;;;;2.25;1.80;;;;;;;21.58;44.42;101190.13;1697534;83;25404;-81
2022/06/05 10:42:40;;;;;;;4.40;1.77;;;;;;;21.64;44.81;101189.14;1721834;82;25842;-82
2022/06/05 10:45:30;;;;;;;2.60;1.92;;;;;;;21.68;43.93;101181.59;1721585;83;26240;-81
2022/06/05 10:48:17;;;;;;;2.83;2.27;;;;;;;21.78;44.06;101176.30;1749435;80;26059;-81
2022/06/05 10:50:58;;;;;;;3.42;2.02;;;;;;;21.88;44.76;101172.94;1753663;81;28337;-81
2022/06/05 10:53:36;;;;;;;2.12;1.50;;;;;;;21.99;44.08;101176.97;1735666;81;25770;-82
2022/06/05 10:56:17;;;;;;;2.00;1.60;;;;;;;21.98;43.11;101167.11;1730963;81;26595;-82
2022/06/05 10:59:23;;;;;;;1.60;1.50;;;;;;;21.99;44.03;101170.67;1731735;81;25819;-81
2022/06/05 11:02:29;;;;;;;2.62;1.87;;;;;;;22.02;44.21;101175.12;1736297;81;25988;-82
2022/06/05 11:05:13;;;;;;;1.57;1.47;;;;;;;22.16;44.71;101164.67;1721472;81;28060;-81
2022/06/05 11:08:09;;;;;;;2.40;1.20;;;;;;;22.19;41.45;101171.84;1737235;81;25541;-81
2022/06/05 11:14:30;;;;;;;1.50;1.30;;;;;;;22.28;41.60;101163.23;1742141;82;25836;-82
2022/06/05 11:17:28;;;;;;;1.67;1.57;;;;;;;22.37;41.80;101165.27;1724663;81;26464;-82
2022/06/05 11:20:13;;;;;;;1.05;1.00;;;;;;;22.43;41.57;101168.92;1748792;81;27461;-82
2022/06/05 11:23:03;;;;;;;1.67;1.12;;;;;;;22.46;40.83;101169.77;1716941;83;25927;-82
2022/06/05 11:25:36;;;;;;;3.02;1.50;;;;;;;22.45;39.64;101169.50;1734428;82;26648;-82
2022/06/05 11:28:26;;;;;;;2.00;1.40;;;;;;;22.41;39.99;101166.42;1734578;81;26627;-82
2022/06/05 11:31:32;;;;;;;2.12;1.55;;;;;;;22.42;39.77;101160.43;1731363;81;27180;-82
2022/06/05 11:34:30;;;;;;;2.17;1.35;;;;;;;22.47;39.54;101153.16;1736312;82;28346;-82
2022/06/05 11:37:18;;;;;;;3.20;1.52;;;;;;;22.52;39.91;101148.31;1729791;81;26037;-82
2022/06/05 11:39:59;;;;;;;1.45;1.30;;;;;;;22.59;39.79;101135.31;1766797;80;25330;-81
2022/06/05 11:42:46;;;;;;;1.07;1.00;;;;;;;22.69;40.39;101130.01;1770051;80;26306;-81
2022/06/05 11:45:32;;;;;;;2.40;1.25;;;;;;;22.88;40.60;101128.61;1721916;81;25750;-82
2022/06/05 11:48:13;;;;;;;3.85;1.40;;;;;;;23.01;40.27;101122.19;1720691;81;27662;-81
2022/06/05 11:50:58;;;;;;;;;;;;;;;23.07;38.79;101116.27;1719161;81;26351;-81
2022/06/05 11:53:58;;;;;;;2.40;1.17;;;;;;;23.14;37.70;101120.97;1719323;81;25983;-81
2022/06/05 11:56:59;;;;;;;1.47;1.20;;;;;;;23.15;38.25;101123.16;1784998;78;25816;-81
2022/06/05 12:00:01;;;;;;;1.40;1.30;;;;;;;23.28;38.75;101124.13;1777244;78;26012;-82
2022/06/05 12:03:07;;;;;;;3.55;1.50;;;;;;;23.38;39.24;101110.59;1775137;79;27559;-81
2022/06/05 12:06:05;;;;;;;2.30;1.32;;;;;;;23.48;38.77;101108.77;1770488;78;25408;-81
2022/06/05 12:08:48;;;;;;;2.27;1.30;;;;;;;23.57;38.20;101111.86;1790147;77;26497;-81
2022/06/05 12:11:44;;;;;;;1.42;1.30;;;;;;;23.64;39.06;101109.21;1757152;80;26749;-81
2022/06/05 12:14:21;;;;;;;2.67;1.37;;;;;;;23.67;37.32;101098.30;1779754;80;25941;-81
2022/06/05 12:17:14;;;;;;;5.17;1.57;;;;;;;23.68;36.93;101106.77;1770045;80;27609;-81
2022/06/05 12:20:01;;;;;;;2.00;1.37;;;;;;;23.69;37.84;101102.96;1760149;79;25468;-82
2022/06/05 12:22:57;;;;;;;1.30;1.20;;;;;;;23.71;37.25;101098.05;1759790;79;26505;-81
2022/06/05 12:25:35;;;;;;;1.90;1.27;;;;;;;23.78;37.93;101098.64;1760869;79;25704;-82
2022/06/05 12:28:19;;;;;;;2.02;1.30;;;;;;;23.90;37.03;101097.93;1762133;80;25791;-81
2022/06/05 12:31:17;;;;;;;1.37;1.27;;;;;;;23.89;35.43;101085.32;1766559;79;27944;-81
2022/06/05 12:34:03;;;;;;;1.47;1.30;;;;;;;23.97;37.30;101086.22;1758774;79;26006;-82